sensor_id;sensor_type;location;lat;lon;timestamp;pressure;altitude;pressure_sealevel;temperature;humidity
61478;BME280;47345;52.334;10.392;2023-05-20T00:00:51;101830.20;;;12.13;63.21
61478;BME280;47345;52.334;10.392;2023-05-20T00:03:22;101822.67;;;12.12;63.21
61478;BME280;47345;52.334;10.392;2023-05-20T00:05:54;101822.42;;;12.12;63.40
61478;BME280;47345;52.334;10.392;2023-05-20T00:08:24;101821.88;;;12.09;63.42
61478;BME280;47345;52.334;10.392;2023-05-20T00:10:55;101825.48;;;12.09;63.50
61478;BME280;47345;52.334;10.392;2023-05-20T00:13:26;101822.61;;;12.06;63.69
61478;BME280;47345;52.334;10.392;2023-05-20T00:15:57;101822.64;;;12.03;63.76
61478;BME280;47345;52.334;10.392;2023-05-20T00:18:27;101819.59;;;11.99;63.77
61478;BME280;47345;52.334;10.392;2023-05-20T00:20:58;101824.90;;;11.97;64.13
61478;BME280;47345;52.334;10.392;2023-05-20T00:23:29;101822.41;;;11.94;64.35
61478;BME280;47345;52.334;10.392;2023-05-20T00:25:59;101822.22;;;11.89;64.30
61478;BME280;47345;52.334;10.392;2023-05-20T00:28:30;101825.14;;;11.87;64.41
61478;BME280;47345;52.334;10.392;2023-05-20T00:31:02;101822.91;;;11.84;64.60
61478;BME280;47345;52.334;10.392;2023-05-20T00:33:33;101821.64;;;11.81;64.63
61478;BME280;47345;52.334;10.392;2023-05-20T00:36:05;101822.94;;;11.77;64.88
61478;BME280;47345;52.334;10.392;2023-05-20T00:38:36;101826.02;;;11.75;64.93
61478;BME280;47345;52.334;10.392;2023-05-20T00:41:07;101825.91;;;11.73;65.15
61478;BME280;47345;52.334;10.392;2023-05-20T00:43:37;101827.77;;;11.71;65.23
61478;BME280;47345;52.334;10.392;2023-05-20T00:46:08;101825.62;;;11.71;65.27
61478;BME280;47345;52.334;10.392;2023-05-20T00:48:41;101823.23;;;11.69;65.39
61478;BME280;47345;52.334;10.392;2023-05-20T00:51:13;101819.83;;;11.67;65.58
61478;BME280;47345;52.334;10.392;2023-05-20T00:53:44;101818.31;;;11.66;65.61
61478;BME280;47345;52.334;10.392;2023-05-20T00:56:15;101818.52;;;11.63;65.70
61478;BME280;47345;52.334;10.392;2023-05-20T00:58:47;101814.38;;;11.62;65.81
61478;BME280;47345;52.334;10.392;2023-05-20T01:01:18;101809.71;;;11.60;65.94
61478;BME280;47345;52.334;10.392;2023-05-20T01:03:49;101811.89;;;11.57;66.01
61478;BME280;47345;52.334;10.392;2023-05-20T01:06:21;101816.15;;;11.54;66.20
61478;BME280;47345;52.334;10.392;2023-05-20T01:08:52;101817.92;;;11.51;66.27
61478;BME280;47345;52.334;10.392;2023-05-20T01:11:30;101811.09;;;11.46;66.44
61478;BME280;47345;52.334;10.392;2023-05-20T01:14:05;101815.90;;;11.44;66.51
61478;BME280;47345;52.334;10.392;2023-05-20T01:16:38;101812.23;;;11.41;66.66
61478;BME280;47345;52.334;10.392;2023-05-20T01:19:21;101810.18;;;11.36;66.81
61478;BME280;47345;52.334;10.392;2023-05-20T01:21:55;101809.15;;;11.30;67.13
61478;BME280;47345;52.334;10.392;2023-05-20T01:24:27;101802.50;;;11.25;67.17
61478;BME280;47345;52.334;10.392;2023-05-20T01:26:58;101802.80;;;11.20;67.35
61478;BME280;47345;52.334;10.392;2023-05-20T01:29:29;101807.64;;;11.18;67.47
61478;BME280;47345;52.334;10.392;2023-05-20T01:32:01;101810.84;;;11.14;67.62
61478;BME280;47345;52.334;10.392;2023-05-20T01:34:34;101809.55;;;11.13;67.70
61478;BME280;47345;52.334;10.392;2023-05-20T01:37:07;101811.20;;;11.10;67.77
61478;BME280;47345;52.334;10.392;2023-05-20T01:39:41;101805.17;;;11.07;67.96
61478;BME280;47345;52.334;10.392;2023-05-20T01:42:14;101807.98;;;11.04;68.12
61478;BME280;47345;52.334;10.392;2023-05-20T01:44:45;101805.14;;;11.02;68.17
61478;BME280;47345;52.334;10.392;2023-05-20T01:47:16;101805.23;;;11.00;68.43
61478;BME280;47345;52.334;10.392;2023-05-20T01:49:47;101804.32;;;11.00;68.64
61478;BME280;47345;52.334;10.392;2023-05-20T01:52:18;101804.77;;;11.01;68.70
61478;BME280;47345;52.334;10.392;2023-05-20T01:54:49;101801.55;;;11.02;68.54
61478;BME280;47345;52.334;10.392;2023-05-20T01:57:21;101801.42;;;11.03;68.64
61478;BME280;47345;52.334;10.392;2023-05-20T01:59:51;101798.06;;;11.00;68.75
61478;BME280;47345;52.334;10.392;2023-05-20T02:02:22;101796.92;;;11.01;68.82
61478;BME280;47345;52.334;10.392;2023-05-20T02:04:54;101796.52;;;11.01;68.80
61478;BME280;47345;52.334;10.392;2023-05-20T02:07:28;101789.29;;;11.02;69.02
61478;BME280;47345;52.334;10.392;2023-05-20T02:09:59;101791.08;;;11.05;69.05
61478;BME280;47345;52.334;10.392;2023-05-20T02:12:30;101790.23;;;11.08;68.91
61478;BME280;47345;52.334;10.392;2023-05-20T02:15:00;101791.27;;;11.10;68.92
61478;BME280;47345;52.334;10.392;2023-05-20T02:17:31;101791.21;;;11.12;68.90
61478;BME280;47345;52.334;10.392;2023-05-20T02:20:03;101793.44;;;11.15;68.96
61478;BME280;47345;52.334;10.392;2023-05-20T02:22:35;101789.77;;;11.16;68.77
61478;BME280;47345;52.334;10.392;2023-05-20T02:25:08;101789.48;;;11.17;68.70
61478;BME280;47345;52.334;10.392;2023-05-20T02:27:39;101790.13;;;11.18;68.86
61478;BME280;47345;52.334;10.392;2023-05-20T02:30:11;101790.42;;;11.18;68.67
61478;BME280;47345;52.334;10.392;2023-05-20T02:32:41;101787.45;;;11.19;68.74
61478;BME280;47345;52.334;10.392;2023-05-20T02:35:12;101791.59;;;11.19;68.70
61478;BME280;47345;52.334;10.392;2023-05-20T02:37:44;101788.92;;;11.19;68.80
61478;BME280;47345;52.334;10.392;2023-05-20T02:40:15;101787.20;;;11.19;68.87
61478;BME280;47345;52.334;10.392;2023-05-20T02:42:46;101784.66;;;11.21;68.89
61478;BME280;47345;52.334;10.392;2023-05-20T02:45:17;101783.57;;;11.19;68.80
61478;BME280;47345;52.334;10.392;2023-05-20T02:47:48;101787.94;;;11.21;68.68
61478;BME280;47345;52.334;10.392;2023-05-20T02:50:19;101789.14;;;11.20;68.81
61478;BME280;47345;52.334;10.392;2023-05-20T02:52:49;101790.19;;;11.19;68.85
61478;BME280;47345;52.334;10.392;2023-05-20T02:55:20;101792.16;;;11.16;68.75
61478;BME280;47345;52.334;10.392;2023-05-20T02:57:52;101792.04;;;11.14;68.77
61478;BME280;47345;52.334;10.392;2023-05-20T03:00:23;101791.18;;;11.13;68.83
61478;BME280;47345;52.334;10.392;2023-05-20T03:02:57;101794.21;;;11.11;68.76
61478;BME280;47345;52.334;10.392;2023-05-20T03:05:28;101789.60;;;11.10;68.88
61478;BME280;47345;52.334;10.392;2023-05-20T03:08:01;101789.36;;;11.09;68.96
61478;BME280;47345;52.334;10.392;2023-05-20T03:10:32;101794.06;;;11.08;68.91
61478;BME280;47345;52.334;10.392;2023-05-20T03:13:03;101800.33;;;11.07;68.88
61478;BME280;47345;52.334;10.392;2023-05-20T03:15:37;101806.09;;;11.06;68.85
61478;BME280;47345;52.334;10.392;2023-05-20T03:18:08;101805.88;;;11.07;68.76
61478;BME280;47345;52.334;10.392;2023-05-20T03:20:39;101804.40;;;11.07;68.79
61478;BME280;47345;52.334;10.392;2023-05-20T03:23:11;101800.15;;;11.04;68.84
61478;BME280;47345;52.334;10.392;2023-05-20T03:25:42;101800.53;;;11.04;68.92
61478;BME280;47345;52.334;10.392;2023-05-20T03:28:13;101797.07;;;11.04;68.94
61478;BME280;47345;52.334;10.392;2023-05-20T03:30:44;101795.08;;;11.01;68.84
61478;BME280;47345;52.334;10.392;2023-05-20T03:33:15;101801.30;;;11.02;68.85
61478;BME280;47345;52.334;10.392;2023-05-20T03:35:46;101800.16;;;11.00;68.79
61478;BME280;47345;52.334;10.392;2023-05-20T03:38:16;101796.31;;;10.97;68.78
61478;BME280;47345;52.334;10.392;2023-05-20T03:40:47;101794.77;;;10.93;68.67
61478;BME280;47345;52.334;10.392;2023-05-20T03:43:18;101798.70;;;10.89;68.83
61478;BME280;47345;52.334;10.392;2023-05-20T03:45:49;101797.36;;;10.85;68.97
61478;BME280;47345;52.334;10.392;2023-05-20T03:48:20;101798.86;;;10.81;69.07
61478;BME280;47345;52.334;10.392;2023-05-20T03:50:51;101800.49;;;10.78;69.12
61478;BME280;47345;52.334;10.392;2023-05-20T03:53:22;101798.36;;;10.76;69.25
61478;BME280;47345;52.334;10.392;2023-05-20T03:55:53;101800.69;;;10.75;69.45
61478;BME280;47345;52.334;10.392;2023-05-20T03:58:23;101798.85;;;10.74;69.51
61478;BME280;47345;52.334;10.392;2023-05-20T04:00:54;101806.40;;;10.74;69.58
61478;BME280;47345;52.334;10.392;2023-05-20T04:03:25;101808.19;;;10.73;69.57
61478;BME280;47345;52.334;10.392;2023-05-20T04:05:57;101809.95;;;10.73;69.68
61478;BME280;47345;52.334;10.392;2023-05-20T04:08:28;101810.17;;;10.74;69.75
61478;BME280;47345;52.334;10.392;2023-05-20T04:10:58;101814.13;;;10.75;69.73
61478;BME280;47345;52.334;10.392;2023-05-20T04:13:29;101813.30;;;10.76;69.72
61478;BME280;47345;52.334;10.392;2023-05-20T04:16:00;101816.36;;;10.78;69.64
61478;BME280;47345;52.334;10.392;2023-05-20T04:18:33;101810.27;;;10.79;69.69
61478;BME280;47345;52.334;10.392;2023-05-20T04:21:08;101811.21;;;10.80;69.69
61478;BME280;47345;52.334;10.392;2023-05-20T04:23:38;101806.39;;;10.81;69.74
61478;BME280;47345;52.334;10.392;2023-05-20T04:26:09;101806.86;;;10.82;69.80
61478;BME280;47345;52.334;10.392;2023-05-20T04:28:41;101812.69;;;10.85;69.86
61478;BME280;47345;52.334;10.392;2023-05-20T04:31:12;101812.46;;;10.88;69.74
61478;BME280;47345;52.334;10.392;2023-05-20T04:33:43;101808.23;;;10.90;69.73
61478;BME280;47345;52.334;10.392;2023-05-20T04:36:16;101805.04;;;10.92;69.81
61478;BME280;47345;52.334;10.392;2023-05-20T04:38:47;101808.61;;;10.95;69.67
61478;BME280;47345;52.334;10.392;2023-05-20T04:41:18;101803.73;;;10.94;69.75
61478;BME280;47345;52.334;10.392;2023-05-20T04:43:49;101801.13;;;10.93;69.79
61478;BME280;47345;52.334;10.392;2023-05-20T04:46:20;101798.34;;;10.95;69.92
61478;BME280;47345;52.334;10.392;2023-05-20T04:48:51;101799.25;;;10.98;69.87
61478;BME280;47345;52.334;10.392;2023-05-20T04:51:22;101801.71;;;11.02;69.88
61478;BME280;47345;52.334;10.392;2023-05-20T04:53:52;101801.23;;;11.06;69.87
61478;BME280;47345;52.334;10.392;2023-05-20T04:56:23;101803.17;;;11.08;69.81
61478;BME280;47345;52.334;10.392;2023-05-20T04:58:54;101800.13;;;11.11;69.81
61478;BME280;47345;52.334;10.392;2023-05-20T05:01:26;101793.36;;;11.12;69.99
61478;BME280;47345;52.334;10.392;2023-05-20T05:03:56;101798.84;;;11.18;69.85
61478;BME280;47345;52.334;10.392;2023-05-20T05:06:28;101803.70;;;11.23;69.87
61478;BME280;47345;52.334;10.392;2023-05-20T05:08:59;101805.23;;;11.29;69.89
61478;BME280;47345;52.334;10.392;2023-05-20T05:11:30;101798.85;;;11.33;69.80
61478;BME280;47345;52.334;10.392;2023-05-20T05:14:01;101791.56;;;11.40;70.04
61478;BME280;47345;52.334;10.392;2023-05-20T05:16:32;101794.22;;;11.45;70.05
61478;BME280;47345;52.334;10.392;2023-05-20T05:19:02;101796.86;;;11.50;69.95
61478;BME280;47345;52.334;10.392;2023-05-20T05:21:33;101796.77;;;11.54;69.73
61478;BME280;47345;52.334;10.392;2023-05-20T05:24:04;101799.18;;;11.55;69.62
61478;BME280;47345;52.334;10.392;2023-05-20T05:26:35;101799.61;;;11.56;69.84
61478;BME280;47345;52.334;10.392;2023-05-20T05:29:06;101803.32;;;11.59;69.99
61478;BME280;47345;52.334;10.392;2023-05-20T05:31:40;101795.98;;;11.62;69.97
61478;BME280;47345;52.334;10.392;2023-05-20T05:34:11;101793.44;;;11.63;69.78
61478;BME280;47345;52.334;10.392;2023-05-20T05:36:41;101790.06;;;11.67;69.75
61478;BME280;47345;52.334;10.392;2023-05-20T05:39:12;101788.05;;;11.70;69.91
61478;BME280;47345;52.334;10.392;2023-05-20T05:41:43;101794.35;;;11.75;69.97
61478;BME280;47345;52.334;10.392;2023-05-20T05:44:14;101795.66;;;11.78;69.81
61478;BME280;47345;52.334;10.392;2023-05-20T05:46:45;101793.30;;;11.81;69.76
61478;BME280;47345;52.334;10.392;2023-05-20T05:49:15;101791.86;;;11.84;69.86
61478;BME280;47345;52.334;10.392;2023-05-20T05:51:47;101791.45;;;11.89;69.88
61478;BME280;47345;52.334;10.392;2023-05-20T05:54:17;101791.59;;;11.92;69.73
61478;BME280;47345;52.334;10.392;2023-05-20T05:56:49;101789.48;;;11.99;69.98
61478;BME280;47345;52.334;10.392;2023-05-20T05:59:21;101784.09;;;12.07;70.12
61478;BME280;47345;52.334;10.392;2023-05-20T06:01:52;101784.88;;;12.20;70.42
61478;BME280;47345;52.334;10.392;2023-05-20T06:04:22;101783.06;;;12.34;70.40
61478;BME280;47345;52.334;10.392;2023-05-20T06:06:53;101784.48;;;12.48;69.96
61478;BME280;47345;52.334;10.392;2023-05-20T06:09:24;101783.38;;;12.60;69.86
61478;BME280;47345;52.334;10.392;2023-05-20T06:11:55;101779.01;;;12.71;69.50
61478;BME280;47345;52.334;10.392;2023-05-20T06:14:26;101778.08;;;12.81;69.30
61478;BME280;47345;52.334;10.392;2023-05-20T06:16:57;101776.00;;;12.89;68.92
61478;BME280;47345;52.334;10.392;2023-05-20T06:19:28;101777.69;;;12.97;69.03
61478;BME280;47345;52.334;10.392;2023-05-20T06:21:59;101779.39;;;13.04;68.44
61478;BME280;47345;52.334;10.392;2023-05-20T06:24:30;101784.63;;;13.08;68.33
61478;BME280;47345;52.334;10.392;2023-05-20T06:27:01;101778.44;;;13.10;68.28
61478;BME280;47345;52.334;10.392;2023-05-20T06:29:31;101774.86;;;13.14;68.62
61478;BME280;47345;52.334;10.392;2023-05-20T06:32:02;101773.25;;;13.19;69.03
61478;BME280;47345;52.334;10.392;2023-05-20T06:34:33;101771.83;;;13.27;68.75
61478;BME280;47345;52.334;10.392;2023-05-20T06:37:04;101779.89;;;13.33;68.91
61478;BME280;47345;52.334;10.392;2023-05-20T06:39:35;101779.77;;;13.37;68.45
61478;BME280;47345;52.334;10.392;2023-05-20T06:42:06;101776.13;;;13.38;68.22
61478;BME280;47345;52.334;10.392;2023-05-20T06:44:37;101775.86;;;13.40;68.64
61478;BME280;47345;52.334;10.392;2023-05-20T06:47:07;101771.44;;;13.45;68.84
61478;BME280;47345;52.334;10.392;2023-05-20T06:49:38;101771.40;;;13.52;68.93
61478;BME280;47345;52.334;10.392;2023-05-20T06:52:09;101764.38;;;13.59;68.81
61478;BME280;47345;52.334;10.392;2023-05-20T06:54:40;101764.98;;;13.69;68.92
61478;BME280;47345;52.334;10.392;2023-05-20T06:57:11;101758.84;;;13.75;67.97
61478;BME280;47345;52.334;10.392;2023-05-20T06:59:42;101758.27;;;13.82;68.30
61478;BME280;47345;52.334;10.392;2023-05-20T07:02:12;101756.56;;;13.88;68.66
61478;BME280;47345;52.334;10.392;2023-05-20T07:04:44;101756.05;;;13.96;68.70
61478;BME280;47345;52.334;10.392;2023-05-20T07:07:15;101754.18;;;14.05;68.61
61478;BME280;47345;52.334;10.392;2023-05-20T07:09:46;101755.96;;;14.15;68.15
61478;BME280;47345;52.334;10.392;2023-05-20T07:12:17;101757.17;;;14.24;67.37
61478;BME280;47345;52.334;10.392;2023-05-20T07:14:48;101754.43;;;14.32;67.24
61478;BME280;47345;52.334;10.392;2023-05-20T07:17:18;101751.27;;;14.39;66.95
61478;BME280;47345;52.334;10.392;2023-05-20T07:19:50;101744.00;;;14.45;67.26
61478;BME280;47345;52.334;10.392;2023-05-20T07:22:21;101751.27;;;14.50;66.14
61478;BME280;47345;52.334;10.392;2023-05-20T07:24:52;101744.32;;;14.54;66.32
61478;BME280;47345;52.334;10.392;2023-05-20T07:27:23;101750.27;;;14.62;66.06
61478;BME280;47345;52.334;10.392;2023-05-20T07:29:54;101748.67;;;14.71;65.95
61478;BME280;47345;52.334;10.392;2023-05-20T07:32:25;101747.43;;;14.80;65.08
61478;BME280;47345;52.334;10.392;2023-05-20T07:34:56;101747.80;;;14.88;64.86
61478;BME280;47345;52.334;10.392;2023-05-20T07:37:27;101739.67;;;14.95;64.49
61478;BME280;47345;52.334;10.392;2023-05-20T07:39:58;101737.42;;;15.00;64.28
61478;BME280;47345;52.334;10.392;2023-05-20T07:42:28;101732.80;;;15.04;64.18
61478;BME280;47345;52.334;10.392;2023-05-20T07:44:59;101733.14;;;15.07;63.78
61478;BME280;47345;52.334;10.392;2023-05-20T07:47:31;101732.42;;;15.08;63.86
61478;BME280;47345;52.334;10.392;2023-05-20T07:50:03;101733.30;;;15.11;63.60
61478;BME280;47345;52.334;10.392;2023-05-20T07:52:34;101736.91;;;15.12;63.35
61478;BME280;47345;52.334;10.392;2023-05-20T07:55:24;101740.42;;;15.14;63.04
61478;BME280;47345;52.334;10.392;2023-05-20T07:57:54;101745.27;;;15.16;62.91
61478;BME280;47345;52.334;10.392;2023-05-20T08:00:25;101747.93;;;15.17;62.82
61478;BME280;47345;52.334;10.392;2023-05-20T08:02:56;101751.28;;;15.16;62.53
61478;BME280;47345;52.334;10.392;2023-05-20T08:05:27;101742.42;;;15.14;62.43
61478;BME280;47345;52.334;10.392;2023-05-20T08:07:58;101739.45;;;15.09;62.39
61478;BME280;47345;52.334;10.392;2023-05-20T08:10:29;101740.89;;;15.06;62.41
61478;BME280;47345;52.334;10.392;2023-05-20T08:13:00;101721.91;;;14.97;62.51
61478;BME280;47345;52.334;10.392;2023-05-20T08:15:31;101733.39;;;15.06;62.48
61478;BME280;47345;52.334;10.392;2023-05-20T08:18:02;101732.96;;;15.07;62.47
61478;BME280;47345;52.334;10.392;2023-05-20T08:20:33;101735.22;;;15.09;62.66
61478;BME280;47345;52.334;10.392;2023-05-20T08:23:05;101733.90;;;15.11;62.20
61478;BME280;47345;52.334;10.392;2023-05-20T08:25:37;101727.11;;;15.10;62.24
61478;BME280;47345;52.334;10.392;2023-05-20T08:28:08;101728.08;;;15.16;62.48
61478;BME280;47345;52.334;10.392;2023-05-20T08:30:39;101725.54;;;15.27;62.34
61478;BME280;47345;52.334;10.392;2023-05-20T08:33:10;101726.52;;;15.39;61.49
61478;BME280;47345;52.334;10.392;2023-05-20T08:35:44;101707.50;;;15.43;61.00
61478;BME280;47345;52.334;10.392;2023-05-20T08:38:15;101713.25;;;15.63;61.06
61478;BME280;47345;52.334;10.392;2023-05-20T08:40:46;101714.91;;;15.74;60.57
61478;BME280;47345;52.334;10.392;2023-05-20T08:43:21;101710.98;;;15.83;60.66
61478;BME280;47345;52.334;10.392;2023-05-20T08:45:54;101716.55;;;15.91;60.94
61478;BME280;47345;52.334;10.392;2023-05-20T08:48:27;101708.86;;;15.97;60.29
61478;BME280;47345;52.334;10.392;2023-05-20T08:50:59;101712.61;;;16.01;60.11
61478;BME280;47345;52.334;10.392;2023-05-20T08:53:32;101706.23;;;16.03;60.03
61478;BME280;47345;52.334;10.392;2023-05-20T08:56:02;101710.60;;;16.05;60.17
61478;BME280;47345;52.334;10.392;2023-05-20T08:58:33;101714.62;;;16.07;59.59
61478;BME280;47345;52.334;10.392;2023-05-20T09:01:04;101709.70;;;16.05;59.78
61478;BME280;47345;52.334;10.392;2023-05-20T09:03:36;101713.78;;;16.06;59.64
61478;BME280;47345;52.334;10.392;2023-05-20T09:06:08;101711.92;;;16.02;58.88
61478;BME280;47345;52.334;10.392;2023-05-20T09:08:39;101710.59;;;15.99;59.17
61478;BME280;47345;52.334;10.392;2023-05-20T09:11:12;101702.23;;;15.96;59.13
61478;BME280;47345;52.334;10.392;2023-05-20T09:13:43;101698.25;;;15.93;59.76
61478;BME280;47345;52.334;10.392;2023-05-20T09:16:17;101696.14;;;15.93;59.99
61478;BME280;47345;52.334;10.392;2023-05-20T09:18:48;101703.05;;;15.93;59.92
61478;BME280;47345;52.334;10.392;2023-05-20T09:21:26;101708.20;;;15.92;60.09
61478;BME280;47345;52.334;10.392;2023-05-20T09:24:01;101704.89;;;15.91;60.25
61478;BME280;47345;52.334;10.392;2023-05-20T09:26:32;101708.40;;;15.95;60.45
61478;BME280;47345;52.334;10.392;2023-05-20T09:29:03;101705.52;;;16.01;60.30
61478;BME280;47345;52.334;10.392;2023-05-20T09:31:34;101701.06;;;16.09;60.35
61478;BME280;47345;52.334;10.392;2023-05-20T09:34:07;101700.70;;;16.20;60.32
61478;BME280;47345;52.334;10.392;2023-05-20T09:36:40;101699.91;;;16.31;60.59
61478;BME280;47345;52.334;10.392;2023-05-20T09:39:19;101689.73;;;16.40;60.87
61478;BME280;47345;52.334;10.392;2023-05-20T09:41:56;101693.77;;;16.64;61.04
61478;BME280;47345;52.334;10.392;2023-05-20T09:44:33;101699.37;;;16.79;60.11
61478;BME280;47345;52.334;10.392;2023-05-20T09:47:06;101695.15;;;16.86;59.99
61478;BME280;47345;52.334;10.392;2023-05-20T09:49:38;101690.98;;;16.93;59.71
61478;BME280;47345;52.334;10.392;2023-05-20T09:52:10;101692.73;;;16.97;58.79
61478;BME280;47345;52.334;10.392;2023-05-20T09:54:43;101684.99;;;17.02;59.03
61478;BME280;47345;52.334;10.392;2023-05-20T09:57:14;101682.66;;;17.06;59.11
61478;BME280;47345;52.334;10.392;2023-05-20T09:59:46;101679.79;;;17.09;58.82
61478;BME280;47345;52.334;10.392;2023-05-20T10:02:17;101680.20;;;17.15;59.07
61478;BME280;47345;52.334;10.392;2023-05-20T10:04:52;101680.80;;;17.22;59.22
61478;BME280;47345;52.334;10.392;2023-05-20T10:07:44;101680.21;;;17.30;59.56
61478;BME280;47345;52.334;10.392;2023-05-20T10:10:26;101688.11;;;17.39;59.04
61478;BME280;47345;52.334;10.392;2023-05-20T10:13:24;101682.96;;;17.40;58.82
61478;BME280;47345;52.334;10.392;2023-05-20T10:16:12;101680.13;;;17.48;58.87
61478;BME280;47345;52.334;10.392;2023-05-20T10:18:53;101676.67;;;17.55;58.47
61478;BME280;47345;52.334;10.392;2023-05-20T10:21:26;101678.77;;;17.58;58.00
61478;BME280;47345;52.334;10.392;2023-05-20T10:24:06;101678.27;;;17.60;57.96
61478;BME280;47345;52.334;10.392;2023-05-20T10:26:38;101674.04;;;17.58;57.70
61478;BME280;47345;52.334;10.392;2023-05-20T10:29:18;101673.02;;;17.54;57.90
61478;BME280;47345;52.334;10.392;2023-05-20T10:31:51;101670.48;;;17.47;57.31
61478;BME280;47345;52.334;10.392;2023-05-20T10:34:23;101669.63;;;17.40;57.87
61478;BME280;47345;52.334;10.392;2023-05-20T10:37:00;101673.09;;;17.36;57.66
61478;BME280;47345;52.334;10.392;2023-05-20T10:39:32;101665.23;;;17.30;58.24
61478;BME280;47345;52.334;10.392;2023-05-20T10:42:10;101656.75;;;17.28;58.11
61478;BME280;47345;52.334;10.392;2023-05-20T10:44:44;101654.36;;;17.29;58.30
61478;BME280;47345;52.334;10.392;2023-05-20T10:47:15;101653.89;;;17.37;58.67
61478;BME280;47345;52.334;10.392;2023-05-20T10:49:59;101655.23;;;17.51;58.94
61478;BME280;47345;52.334;10.392;2023-05-20T10:52:35;101657.95;;;17.60;58.18
61478;BME280;47345;52.334;10.392;2023-05-20T10:55:17;101664.60;;;17.58;57.99
61478;BME280;47345;52.334;10.392;2023-05-20T10:57:48;101663.75;;;17.48;57.94
61478;BME280;47345;52.334;10.392;2023-05-20T11:00:19;101662.59;;;17.34;57.91
61478;BME280;47345;52.334;10.392;2023-05-20T11:02:50;101665.36;;;17.22;58.77
61478;BME280;47345;52.334;10.392;2023-05-20T11:05:21;101662.77;;;17.11;58.79
61478;BME280;47345;52.334;10.392;2023-05-20T11:08:01;101664.42;;;16.96;59.08
61478;BME280;47345;52.334;10.392;2023-05-20T11:10:48;101656.10;;;16.84;59.61
61478;BME280;47345;52.334;10.392;2023-05-20T11:13:19;101646.73;;;16.83;60.10
61478;BME280;47345;52.334;10.392;2023-05-20T11:15:50;101654.50;;;16.88;60.00
61478;BME280;47345;52.334;10.392;2023-05-20T11:18:21;101654.25;;;16.87;59.96
61478;BME280;47345;52.334;10.392;2023-05-20T11:20:52;101646.63;;;16.84;59.74
61478;BME280;47345;52.334;10.392;2023-05-20T11:23:24;101641.38;;;16.82;60.19
61478;BME280;47345;52.334;10.392;2023-05-20T11:25:56;101642.55;;;16.89;60.47
61478;BME280;47345;52.334;10.392;2023-05-20T11:28:27;101639.59;;;17.01;60.31
61478;BME280;47345;52.334;10.392;2023-05-20T11:31:01;101629.66;;;17.12;59.87
61478;BME280;47345;52.334;10.392;2023-05-20T11:33:33;101626.17;;;17.24;59.77
61478;BME280;47345;52.334;10.392;2023-05-20T11:36:05;101618.73;;;17.34;59.41
61478;BME280;47345;52.334;10.392;2023-05-20T11:38:57;101623.00;;;17.50;59.63
61478;BME280;47345;52.334;10.392;2023-05-20T11:41:28;101619.05;;;17.62;58.53
61478;BME280;47345;52.334;10.392;2023-05-20T11:43:59;101619.70;;;17.67;58.07
61478;BME280;47345;52.334;10.392;2023-05-20T11:46:30;101624.78;;;17.66;57.32
61478;BME280;47345;52.334;10.392;2023-05-20T11:49:01;101621.59;;;17.59;57.50
61478;BME280;47345;52.334;10.392;2023-05-20T11:51:34;101614.26;;;17.57;57.89
61478;BME280;47345;52.334;10.392;2023-05-20T11:54:06;101609.87;;;17.61;58.38
61478;BME280;47345;52.334;10.392;2023-05-20T11:56:38;101608.05;;;17.70;58.42
61478;BME280;47345;52.334;10.392;2023-05-20T11:59:09;101615.85;;;17.78;57.79
61478;BME280;47345;52.334;10.392;2023-05-20T12:01:40;101605.73;;;17.74;57.62
61478;BME280;47345;52.334;10.392;2023-05-20T12:04:12;101603.87;;;17.70;57.73
61478;BME280;47345;52.334;10.392;2023-05-20T12:06:45;101602.12;;;17.67;57.84
61478;BME280;47345;52.334;10.392;2023-05-20T12:09:16;101608.88;;;17.62;57.67
61478;BME280;47345;52.334;10.392;2023-05-20T12:11:46;101598.72;;;17.54;58.54
61478;BME280;47345;52.334;10.392;2023-05-20T12:14:17;101602.39;;;17.57;58.87
61478;BME280;47345;52.334;10.392;2023-05-20T12:16:48;101595.45;;;17.60;58.85
61478;BME280;47345;52.334;10.392;2023-05-20T12:19:19;101594.12;;;17.64;58.81
61478;BME280;47345;52.334;10.392;2023-05-20T12:21:50;101598.88;;;17.64;57.73
61478;BME280;47345;52.334;10.392;2023-05-20T12:24:21;101592.48;;;17.53;57.89
61478;BME280;47345;52.334;10.392;2023-05-20T12:26:51;101587.26;;;17.44;58.23
61478;BME280;47345;52.334;10.392;2023-05-20T12:29:22;101585.05;;;17.37;58.55
61478;BME280;47345;52.334;10.392;2023-05-20T12:31:53;101584.06;;;17.33;58.23
61478;BME280;47345;52.334;10.392;2023-05-20T12:34:24;101582.30;;;17.25;58.38
61478;BME280;47345;52.334;10.392;2023-05-20T12:36:55;101580.09;;;17.18;58.91
61478;BME280;47345;52.334;10.392;2023-05-20T12:39:28;101574.76;;;17.11;58.98
61478;BME280;47345;52.334;10.392;2023-05-20T12:41:59;101573.61;;;17.11;59.16
61478;BME280;47345;52.334;10.392;2023-05-20T12:44:29;101572.95;;;17.14;59.16
61478;BME280;47345;52.334;10.392;2023-05-20T12:47:00;101567.35;;;17.19;59.16
61478;BME280;47345;52.334;10.392;2023-05-20T12:49:31;101563.39;;;17.23;59.05
61478;BME280;47345;52.334;10.392;2023-05-20T12:52:01;101569.74;;;17.25;58.84
61478;BME280;47345;52.334;10.392;2023-05-20T12:54:40;101565.84;;;17.25;58.81
61478;BME280;47345;52.334;10.392;2023-05-20T12:57:11;101558.39;;;17.26;58.83
61478;BME280;47345;52.334;10.392;2023-05-20T12:59:42;101557.97;;;17.32;59.32
61478;BME280;47345;52.334;10.392;2023-05-20T13:02:13;101555.67;;;17.42;59.45
61478;BME280;47345;52.334;10.392;2023-05-20T13:04:45;101558.31;;;17.52;58.77